Terminal Aerodrome Forecast
Issued by NWS St Louis, MO

Home | Current Version | Previous Version | Graphics & Text | Print | Product List | Glossary On
Versions: 1 2 3 4 5 6 7 8 9 10 11 12 13 14 15 16 17 18 19 20 21 22 23 24 25 26 27 28 29 30 31 32 33 34 35 36 37 38 39
000
FTUS43 KLSX 011500 AAC
TAFSTL
TAF AMD
KSTL 011502Z 0115/0218 16011KT P6SM VCSH SCT040 OVC200
     FM011600 23013G20KT P6SM BKN035
     FM012200 22012KT 5SM -TSRA BR BKN030CB
     FM020300 23007KT P6SM -SHRA VCTS BKN050CB
     FM020600 23007KT P6SM SCT050 BKN100
     FM021400 31005KT P6SM BKN150=

USA.gov is the U.S. government's official web portal to all federal, state and local government web resources and services.